Peshtigo, WI (54157)

11:42 PM CDT on August 30, 2014 (GMT -0500)
Tyco Fire Protection | Change Station
CLOSE
Current Station
Personal Weather Station
Location: Marinette, WI
Elevation: 617 ft
Nearby Weather Stations

Elev 617 ft 45.08 °N, 87.64 °W | Updated 8 seconds ago

Overcast
Overcast
62.3 °F
Feels Like 62.3 °F
N
3.0
Wind Variable Wind from NW
Gusts 3.0 mph

Today
High -- | Low -- °F
--% Chance of Precip.
Yesterday
High -- | Low -- °F
Precip. -- in
6:10 AM 7:31 PM
Waxing Crescent, 27% visible
Pressure 29.87 in
Visibility 10.0 miles
Clouds Overcast 12000 ft
Dew Point 60 °F
Humidity 93%
Rainfall 0.81 in
Snow Depth Not available.
UV 0 out of 12
Pollen .20 out of 12
Air Quality Not available.
Flu Activity Not available.
METAR KMNM 310435Z AUTO 31004KT 10SM OVC120 16/14 A2987 RMK AO1

More Conditions Fewer Conditions

Pressure 29.87 in
Visibility 10.0 miles
Clouds Overcast 12000 ft
Dew Point 60 °F
Humidity 93%
Rainfall 0.81 in
Snow Depth Not available.
UV 0 out of 12
Pollen .20 out of 12
Air Quality Not available.
Flu Activity Not available.
METAR KMNM 310435Z AUTO 31004KT 10SM OVC120 16/14 A2987 RMK AO1

More Conditions Fewer Conditions

10-Day Weather Forecast

Almanac

Astronomy

Aug. 30, 2014 Rise Set
Actual Time 6:10 AM CDT 7:31 PM CDT
Civil Twilight 5:40 AM CDT 8:02 PM CDT
Nautical Twilight 5:03 AM CDT 8:38 PM CDT
Astronomical Twilight 4:24 AM CDT 9:17 PM CDT
Moon 11:12 AM CDT (8/30) 9:50 PM CDT (8/30)
Length of Visible Light 14h 22m
Length of Day
13h 21m
Tomorrow will be 3m 1s shorter.
Waxing Crescent, 27% of the Moon is Illuminated
Aug 31
Waxing Crescent
Sep 2
First Quarter
Sep 8
Full
Sep 15
Last Quarter
Sep 24
New

Today's Extremes

State Highs State Lows

Community

WunderPhotos

Upload Photos

1,748,783 photos uploaded!

Nearby

Snow Depth

Station Depth Elevation
No new snow has been reported.

Earthquake Activity

City Distance Mag. Time & Date
No recent earthquake activity has been reported nearby.
Minimum magnitude displayed is 2.5.

Coastal Water Temperatures

Place Temperature
Menominee, MI 71.1 °F

Nearby Weather Stations